createdAt,value
2018-10-21T00:01:07.963Z,9.53
2018-10-21T00:03:36.887Z,10.33
2018-10-21T00:06:05.823Z,10.43
2018-10-21T00:08:34.739Z,10.53
2018-10-21T00:11:03.688Z,11.57
2018-10-21T00:13:33.110Z,9.40
2018-10-21T00:16:02.042Z,10.93
2018-10-21T00:18:30.938Z,14.07
2018-10-21T00:20:59.949Z,15.23
2018-10-21T00:23:28.797Z,11.33
2018-10-21T00:25:57.687Z,9.50
2018-10-21T00:28:26.593Z,11.97
2018-10-21T00:30:55.530Z,9.77
2018-10-21T00:33:24.477Z,11.07
2018-10-21T00:35:53.338Z,9.10
2018-10-21T00:38:22.244Z,11.80
2018-10-21T00:40:51.243Z,10.70
2018-10-21T00:43:20.191Z,9.70
2018-10-21T00:45:49.098Z,11.10
2018-10-21T00:48:18.053Z,11.70
2018-10-21T00:50:47.023Z,10.10
2018-10-21T00:53:15.965Z,11.30
2018-10-21T00:55:44.947Z,11.07
2018-10-21T00:58:13.941Z,10.57
2018-10-21T01:00:43.811Z,10.37
2018-10-21T01:03:12.722Z,11.33
2018-10-21T01:05:41.648Z,10.87
2018-10-21T01:08:10.554Z,11.13
2018-10-21T01:10:39.668Z,11.60
2018-10-21T01:13:08.588Z,11.07
2018-10-21T01:15:37.523Z,11.53
2018-10-21T01:18:06.886Z,12.50
2018-10-21T01:20:35.891Z,11.60
2018-10-21T01:23:04.890Z,12.30
2018-10-21T01:25:33.866Z,12.17
2018-10-21T01:28:02.832Z,12.20
2018-10-21T01:30:31.689Z,13.43
2018-10-21T01:33:00.646Z,12.17
2018-10-21T01:35:29.683Z,11.40
2018-10-21T01:37:58.704Z,13.10
2018-10-21T01:40:31.918Z,16.20
2018-10-21T01:43:01.131Z,15.57
2018-10-21T01:45:30.039Z,13.17
2018-10-21T01:48:00.056Z,13.20
2018-10-21T01:50:28.992Z,13.93
2018-10-21T01:52:58.926Z,12.40
2018-10-21T01:55:27.964Z,12.10
2018-10-21T01:57:58.055Z,12.27
2018-10-21T02:00:27.646Z,11.27
2018-10-21T02:02:57.275Z,12.87
2018-10-21T02:05:26.362Z,12.23
2018-10-21T02:07:55.667Z,13.30
2018-10-21T02:10:24.596Z,12.60
2018-10-21T02:12:53.534Z,13.10
2018-10-21T02:15:22.567Z,12.33
2018-10-21T02:17:51.463Z,12.53
2018-10-21T02:20:21.059Z,13.83
2018-10-21T02:22:50.322Z,12.30
2018-10-21T02:25:19.302Z,13.10
2018-10-21T02:27:49.034Z,12.33
2018-10-21T02:30:19.349Z,15.60
2018-10-21T02:32:49.583Z,14.63
2018-10-21T02:35:18.980Z,23.07
2018-10-21T02:37:48.524Z,17.40
2018-10-21T02:41:40.933Z,16.13
2018-10-21T02:44:12.262Z,15.47
2018-10-21T02:46:41.680Z,13.67
2018-10-21T02:49:12.415Z,12.37
2018-10-21T02:51:41.342Z,14.00
2018-10-21T02:54:10.698Z,13.30
2018-10-21T02:56:39.642Z,13.83
2018-10-21T02:59:08.495Z,13.20
2018-10-21T03:01:37.419Z,15.13
2018-10-21T03:04:06.319Z,14.10
2018-10-21T03:06:35.228Z,13.87
2018-10-21T03:09:05.633Z,14.37
2018-10-21T03:11:34.590Z,15.17
2018-10-21T03:14:04.027Z,14.83
2018-10-21T03:16:32.914Z,14.43
2018-10-21T03:19:01.799Z,14.50
2018-10-21T03:21:30.837Z,16.37
2018-10-21T03:23:59.683Z,15.77
2018-10-21T03:26:28.551Z,16.00
2018-10-21T03:28:58.466Z,14.43
2018-10-21T03:31:27.399Z,14.57
2018-10-21T03:33:56.454Z,15.20
2018-10-21T03:36:25.222Z,15.40
2018-10-21T03:45:48.668Z,14.63
2018-10-21T03:48:17.518Z,16.83
2018-10-21T03:50:46.419Z,16.50
2018-10-21T03:53:15.298Z,15.40
2018-10-21T03:55:44.598Z,16.07
2018-10-21T03:58:13.644Z,15.93
2018-10-21T04:00:42.582Z,15.70
2018-10-21T04:03:11.490Z,15.93
2018-10-21T04:05:40.379Z,16.80
2018-10-21T04:08:09.294Z,34.97
2018-10-21T04:10:38.238Z,22.63
2018-10-21T04:13:07.200Z,17.73
2018-10-21T04:15:36.151Z,18.40
2018-10-21T04:18:05.104Z,16.80
2018-10-21T04:20:34.030Z,15.17
2018-10-21T04:23:03.670Z,16.57
2018-10-21T04:25:33.821Z,15.63
2018-10-21T04:28:03.583Z,15.30
2018-10-21T04:30:33.533Z,15.50
2018-10-21T04:33:23.764Z,15.63
2018-10-21T04:35:52.655Z,16.33
2018-10-21T04:39:45.427Z,17.50
2018-10-21T04:42:14.298Z,15.90
2018-10-21T04:44:43.202Z,15.13
2018-10-21T04:47:12.094Z,15.50
2018-10-21T04:49:40.971Z,16.40
2018-10-21T04:52:09.871Z,14.70
2018-10-21T04:54:38.798Z,14.87
2018-10-21T04:57:08.403Z,13.60
2018-10-21T04:59:38.531Z,14.67
2018-10-21T05:02:07.372Z,14.67
2018-10-21T05:04:36.245Z,15.37
2018-10-21T05:07:05.154Z,14.43
2018-10-21T05:09:34.087Z,16.30
2018-10-21T05:12:03.010Z,15.30
2018-10-21T05:14:32.854Z,17.00
2018-10-21T05:17:01.758Z,15.90
2018-10-21T05:19:30.847Z,17.20
2018-10-21T05:21:59.707Z,14.23
2018-10-21T05:24:28.572Z,15.80
2018-10-21T05:26:57.558Z,16.87
2018-10-21T05:29:26.469Z,15.37
2018-10-21T05:31:55.387Z,17.00
2018-10-21T05:34:24.226Z,16.50
2018-10-21T05:36:53.146Z,16.17
2018-10-21T05:39:22.092Z,15.13
2018-10-21T05:41:50.922Z,15.50
2018-10-21T05:44:19.746Z,15.37
2018-10-21T05:46:50.825Z,15.70
2018-10-21T05:49:19.578Z,16.03
2018-10-21T05:51:49.864Z,15.17
2018-10-21T05:54:19.535Z,17.50
2018-10-21T05:56:49.810Z,16.47
2018-10-21T05:59:18.954Z,17.80
2018-10-21T06:01:49.104Z,17.27
2018-10-21T06:04:18.638Z,17.80
2018-10-21T06:06:47.567Z,17.77
2018-10-21T06:09:16.422Z,18.23
2018-10-21T06:11:45.247Z,16.47
2018-10-21T06:14:14.119Z,17.90
2018-10-21T06:16:48.420Z,18.07
2018-10-21T06:19:20.732Z,18.57
2018-10-21T06:21:49.616Z,19.33
2018-10-21T06:24:18.459Z,18.20
2018-10-21T06:26:47.429Z,17.03
2018-10-21T06:31:25.059Z,19.07
2018-10-21T06:33:53.945Z,19.53
2018-10-21T06:36:23.215Z,17.90
2018-10-21T06:38:52.047Z,16.33
2018-10-21T06:41:21.738Z,17.10
2018-10-21T06:43:50.562Z,17.93
2018-10-21T06:46:19.479Z,18.40
2018-10-21T06:48:48.404Z,17.80
2018-10-21T06:51:17.394Z,17.40
2018-10-21T06:53:46.242Z,17.40
2018-10-21T06:56:15.236Z,18.40
2018-10-21T06:58:44.079Z,16.60
2018-10-21T07:01:12.930Z,15.83
2018-10-21T07:03:41.807Z,16.27
2018-10-21T07:06:16.082Z,16.03
2018-10-21T07:08:45.339Z,19.27
2018-10-21T07:11:14.382Z,18.20
2018-10-21T07:13:43.387Z,18.37
2018-10-21T07:16:12.540Z,18.67
2018-10-21T07:18:41.988Z,17.70
2018-10-21T07:21:10.992Z,17.40
2018-10-21T07:23:40.258Z,18.27
2018-10-21T07:26:09.195Z,17.50
2018-10-21T07:28:38.231Z,17.57
2018-10-21T07:31:07.109Z,18.60
2018-10-21T07:33:36.138Z,18.40
2018-10-21T07:36:05.499Z,18.70
2018-10-21T07:38:34.375Z,18.50
2018-10-21T07:41:03.236Z,19.20
2018-10-21T07:43:32.194Z,20.20
2018-10-21T07:46:01.190Z,18.83
2018-10-21T07:48:30.095Z,18.70
2018-10-21T07:50:59.098Z,20.43
2018-10-21T07:53:28.054Z,19.70
2018-10-21T07:55:56.907Z,18.30
2018-10-21T07:58:25.774Z,18.13
2018-10-21T08:00:54.636Z,17.80
2018-10-21T08:03:23.674Z,17.40
2018-10-21T08:06:31.244Z,18.30
2018-10-21T08:09:00.162Z,18.87
2018-10-21T08:11:29.054Z,19.50
2018-10-21T08:13:58.006Z,16.77
2018-10-21T08:16:26.938Z,20.40
2018-10-21T08:18:55.827Z,17.80
2018-10-21T08:21:25.088Z,17.83
2018-10-21T08:23:54.035Z,16.70
2018-10-21T08:26:22.962Z,17.80
2018-10-21T08:28:51.955Z,18.40
2018-10-21T08:31:20.875Z,16.47
2018-10-21T08:33:49.806Z,16.87
2018-10-21T08:36:18.706Z,17.40
2018-10-21T08:38:47.670Z,15.50
2018-10-21T08:41:16.579Z,15.10
2018-10-21T08:43:45.430Z,13.80
2018-10-21T08:46:14.439Z,15.13
2018-10-21T08:48:43.403Z,13.97
2018-10-21T08:51:12.454Z,13.03
2018-10-21T08:53:41.299Z,13.03
2018-10-21T08:56:10.175Z,13.33
2018-10-21T08:58:39.212Z,13.23
2018-10-21T09:01:08.182Z,12.27
2018-10-21T09:03:37.351Z,13.10
2018-10-21T09:06:06.259Z,10.60
2018-10-21T09:08:35.103Z,11.20
2018-10-21T09:11:04.153Z,8.90
2018-10-21T09:13:32.958Z,8.73
2018-10-21T09:16:01.829Z,9.07
2018-10-21T09:18:30.848Z,9.53
2018-10-21T09:20:59.706Z,8.90
2018-10-21T09:23:28.619Z,9.90
2018-10-21T09:25:57.462Z,9.57
2018-10-21T09:28:26.404Z,8.13
2018-10-21T09:30:55.291Z,8.63
2018-10-21T09:33:24.278Z,8.43
2018-10-21T09:35:53.194Z,7.97
2018-10-21T09:38:22.130Z,5.90
2018-10-21T09:40:51.010Z,7.53
2018-10-21T09:43:19.942Z,6.87
2018-10-21T09:45:48.814Z,6.23
2018-10-21T09:48:17.728Z,5.00
2018-10-21T09:50:46.646Z,4.50
2018-10-21T09:53:15.581Z,5.37
2018-10-21T09:55:44.458Z,4.63
2018-10-21T09:58:13.449Z,4.77
2018-10-21T10:00:47.718Z,4.30
2018-10-21T10:03:16.647Z,3.90
2018-10-21T10:05:45.559Z,3.50
2018-10-21T10:08:14.510Z,3.27
2018-10-21T10:10:43.474Z,4.40
2018-10-21T10:13:12.401Z,4.03
2018-10-21T10:15:41.281Z,4.10
2018-10-21T10:18:10.206Z,4.33
2018-10-21T10:20:39.066Z,4.60
2018-10-21T10:23:08.024Z,4.87
2018-10-21T10:25:36.965Z,4.60
2018-10-21T10:28:06.936Z,5.40
2018-10-21T10:30:35.917Z,4.30
2018-10-21T10:33:04.955Z,3.73
2018-10-21T10:35:33.917Z,3.40
2018-10-21T10:38:02.870Z,5.20
2018-10-21T10:40:31.737Z,4.10
2018-10-21T10:43:00.632Z,4.20
2018-10-21T10:45:29.538Z,4.80
2018-10-21T10:47:58.423Z,3.50
2018-10-21T10:50:27.314Z,3.30
2018-10-21T10:52:56.281Z,3.03
2018-10-21T10:55:29.335Z,2.77
2018-10-21T10:57:58.278Z,3.17
2018-10-21T11:00:27.166Z,3.57
2018-10-21T11:02:56.122Z,2.97
2018-10-21T11:05:25.027Z,3.43
2018-10-21T11:07:53.922Z,3.30
2018-10-21T11:10:22.870Z,3.30
2018-10-21T11:12:51.807Z,3.30
2018-10-21T11:15:20.630Z,3.70
2018-10-21T11:17:49.524Z,4.03
2018-10-21T11:20:18.423Z,4.23
2018-10-21T11:22:47.293Z,4.00
2018-10-21T11:25:16.230Z,3.07
2018-10-21T11:27:45.179Z,3.57
2018-10-21T11:30:14.064Z,3.00
2018-10-21T11:32:42.968Z,3.47
2018-10-21T11:35:11.823Z,4.07
2018-10-21T11:37:40.759Z,2.97
2018-10-21T11:40:09.639Z,3.47
2018-10-21T11:42:38.519Z,3.30
2018-10-21T11:45:07.661Z,3.50
2018-10-21T11:47:36.610Z,2.77
2018-10-21T11:50:06.291Z,3.13
2018-10-21T11:52:35.277Z,2.70
2018-10-21T11:55:04.169Z,3.33
2018-10-21T11:57:32.953Z,3.40
2018-10-21T12:00:01.880Z,2.60
2018-10-21T12:02:30.752Z,2.63
2018-10-21T12:04:59.652Z,3.17
2018-10-21T12:07:28.558Z,2.53
2018-10-21T12:09:57.557Z,2.40
2018-10-21T12:12:26.376Z,2.07
2018-10-21T12:14:55.279Z,2.50
2018-10-21T12:17:25.543Z,2.80
2018-10-21T12:19:54.438Z,3.30
2018-10-21T12:22:23.448Z,3.43
2018-10-21T12:24:52.343Z,2.30
2018-10-21T12:27:21.378Z,2.23
2018-10-21T12:29:50.347Z,2.70
2018-10-21T12:32:19.271Z,2.53
2018-10-21T12:34:48.150Z,2.80
2018-10-21T12:37:17.786Z,2.70
2018-10-21T12:39:46.646Z,3.20
2018-10-21T12:42:15.587Z,2.97
2018-10-21T12:44:44.559Z,3.30
2018-10-21T12:47:13.515Z,2.20
2018-10-21T12:49:42.332Z,2.70
2018-10-21T12:52:11.348Z,2.70
2018-10-21T12:54:40.359Z,2.70
2018-10-21T12:57:09.293Z,2.73
2018-10-21T12:59:38.210Z,2.60
2018-10-21T13:02:07.121Z,3.23
2018-10-21T13:04:36.050Z,2.13
2018-10-21T13:07:05.305Z,2.70
2018-10-21T13:09:34.190Z,2.40
2018-10-21T13:12:03.134Z,3.00
2018-10-21T13:14:32.046Z,3.03
2018-10-21T13:17:00.981Z,2.13
2018-10-21T13:26:24.420Z,2.27
2018-10-21T13:28:53.342Z,2.43
2018-10-21T13:31:22.217Z,2.40
2018-10-21T13:33:51.110Z,2.60
2018-10-21T13:36:20.009Z,2.90
2018-10-21T13:38:48.877Z,2.90
2018-10-21T13:41:17.683Z,2.80
2018-10-21T13:43:47.338Z,2.27
2018-10-21T13:46:16.319Z,2.20
2018-10-21T13:48:45.158Z,2.77
2018-10-21T13:51:15.070Z,2.80
2018-10-21T13:53:43.930Z,2.63
2018-10-21T13:56:12.841Z,3.17
2018-10-21T13:58:41.726Z,2.80
2018-10-21T14:01:10.792Z,2.90
2018-10-21T14:03:39.511Z,3.53
2018-10-21T14:06:08.395Z,2.80
2018-10-21T14:08:37.374Z,2.93
2018-10-21T14:11:06.288Z,2.60
2018-10-21T14:13:35.178Z,2.63
2018-10-21T14:16:04.116Z,2.60
2018-10-21T14:18:32.916Z,2.70
2018-10-21T14:21:02.332Z,2.60
2018-10-21T14:23:31.539Z,2.07
2018-10-21T14:26:00.458Z,2.60
2018-10-21T14:28:29.406Z,3.47
2018-10-21T14:32:01.617Z,2.60
2018-10-21T14:34:30.509Z,2.53
2018-10-21T14:36:59.556Z,3.13
2018-10-21T14:39:28.676Z,2.60
2018-10-21T14:41:57.660Z,2.60
2018-10-21T14:44:26.452Z,2.80
2018-10-21T14:46:55.349Z,3.03
2018-10-21T14:49:24.270Z,3.17
2018-10-21T14:51:53.253Z,2.80
2018-10-21T14:54:22.139Z,3.10
2018-10-21T14:56:51.081Z,3.17
2018-10-21T14:59:19.919Z,2.57
2018-10-21T15:01:48.790Z,2.70
2018-10-21T15:04:17.789Z,3.00
2018-10-21T15:06:46.728Z,3.10
2018-10-21T15:09:15.690Z,3.40
2018-10-21T15:11:44.547Z,3.43
2018-10-21T15:14:13.519Z,3.50
2018-10-21T15:16:42.339Z,3.67
2018-10-21T15:19:11.227Z,3.20
2018-10-21T15:21:40.156Z,3.10
2018-10-21T15:24:08.986Z,2.90
2018-10-21T15:26:38.050Z,4.07
2018-10-21T15:29:07.283Z,3.07
2018-10-21T15:31:36.194Z,4.20
2018-10-21T15:34:05.153Z,3.17
2018-10-21T15:36:33.943Z,2.77
2018-10-21T15:39:02.850Z,3.60
2018-10-21T15:41:31.744Z,3.07
2018-10-21T15:44:00.656Z,3.87
2018-10-21T15:46:29.458Z,3.00
2018-10-21T15:48:58.517Z,3.17
2018-10-21T15:51:27.394Z,3.40
2018-10-21T15:53:56.295Z,3.00
2018-10-21T15:56:25.187Z,2.77
2018-10-21T15:58:54.013Z,2.63
2018-10-21T16:01:22.863Z,3.87
2018-10-21T16:03:51.755Z,4.40
2018-10-21T16:06:20.656Z,3.73
2018-10-21T16:08:49.510Z,3.47
2018-10-21T16:11:18.432Z,3.50
2018-10-21T16:13:47.361Z,24.53
2018-10-21T16:16:18.142Z,11.50
2018-10-21T16:18:49.766Z,121.70
2018-10-21T16:21:18.682Z,59.60
2018-10-21T16:23:47.583Z,6.03
2018-10-21T16:26:16.492Z,44.63
2018-10-21T16:28:45.360Z,29.93
2018-10-21T16:31:14.315Z,15.20
2018-10-21T16:33:43.220Z,6.30
2018-10-21T16:36:12.130Z,9.80
2018-10-21T16:38:41.034Z,5.90
2018-10-21T16:41:09.870Z,6.13
2018-10-21T16:43:38.815Z,6.00
2018-10-21T16:46:07.719Z,6.20
2018-10-21T16:48:36.571Z,5.90
2018-10-21T16:51:06.283Z,8.37
2018-10-21T16:53:35.235Z,7.40
2018-10-21T16:56:04.157Z,10.13
2018-10-21T16:58:33.078Z,10.00
2018-10-21T17:01:02.023Z,10.27
2018-10-21T17:03:31.909Z,10.20
2018-10-21T17:06:01.423Z,11.00
2018-10-21T17:08:30.362Z,9.10
2018-10-21T17:10:59.369Z,9.43
2018-10-21T17:13:28.279Z,10.97
2018-10-21T17:15:57.139Z,11.50
2018-10-21T17:18:26.178Z,11.40
2018-10-21T17:20:55.154Z,13.50
2018-10-21T17:23:24.114Z,11.20
2018-10-21T17:25:53.058Z,10.97
2018-10-21T17:28:22.059Z,10.30
2018-10-21T17:30:50.997Z,10.60
2018-10-21T17:33:19.930Z,9.80
2018-10-21T17:35:48.848Z,11.53
2018-10-21T17:38:17.922Z,13.67
2018-10-21T17:40:46.814Z,16.67
2018-10-21T17:43:15.815Z,19.30
2018-10-21T17:45:44.662Z,19.20
2018-10-21T17:48:13.560Z,15.00
2018-10-21T17:50:42.383Z,15.63
2018-10-21T17:53:12.360Z,14.43
2018-10-21T17:55:41.225Z,12.33
2018-10-21T17:58:10.221Z,11.97
2018-10-21T18:00:39.886Z,10.70
2018-10-21T18:03:10.902Z,11.80
2018-10-21T18:05:39.886Z,12.70
2018-10-21T18:08:08.869Z,13.97
2018-10-21T18:10:37.952Z,17.07
2018-10-21T18:13:06.830Z,203.90
2018-10-21T18:15:35.914Z,249.83
2018-10-21T18:18:05.030Z,103.00
2018-10-21T18:20:34.027Z,112.37
2018-10-21T18:23:02.949Z,51.70
2018-10-21T18:25:31.964Z,53.43
2018-10-21T18:28:00.976Z,44.50
2018-10-21T18:30:29.942Z,33.10
2018-10-21T18:32:58.950Z,18.87
2018-10-21T18:35:27.779Z,9.80
2018-10-21T18:37:56.786Z,13.50
2018-10-21T18:40:25.926Z,17.20
2018-10-21T18:42:54.768Z,12.00
2018-10-21T18:45:23.640Z,9.63
2018-10-21T18:47:52.542Z,11.80
2018-10-21T18:50:21.533Z,11.10
2018-10-21T18:52:50.602Z,9.73
2018-10-21T18:55:19.794Z,10.53
2018-10-21T18:57:48.690Z,7.90
2018-10-21T19:00:18.659Z,8.80
2018-10-21T19:02:47.626Z,9.70
2018-10-21T19:05:16.675Z,10.50
2018-10-21T19:07:45.614Z,9.53
2018-10-21T19:10:15.717Z,9.67
2018-10-21T19:12:44.630Z,11.63
2018-10-21T19:15:14.070Z,10.97
2018-10-21T19:17:43.033Z,10.40
2018-10-21T19:20:13.698Z,10.93
2018-10-21T19:22:42.895Z,17.00
2018-10-21T19:25:18.467Z,18.30
2018-10-21T19:27:47.520Z,18.40
2018-10-21T19:30:16.526Z,11.20
2018-10-21T19:32:45.612Z,11.23
2018-10-21T19:35:15.516Z,10.77
2018-10-21T19:37:44.611Z,10.93
2018-10-21T19:40:14.820Z,12.27
2018-10-21T19:42:44.648Z,11.20
2018-10-21T19:45:14.248Z,9.67
2018-10-21T19:47:43.281Z,10.80
2018-10-21T19:50:13.424Z,11.50
2018-10-21T19:52:43.067Z,10.13
2018-10-21T19:55:12.372Z,12.50
2018-10-21T19:57:41.194Z,12.57
2018-10-21T20:00:13.731Z,10.70
2018-10-21T20:02:42.851Z,13.13
2018-10-21T20:05:11.741Z,12.60
2018-10-21T20:07:40.791Z,13.50
2018-10-21T20:10:11.738Z,13.73
2018-10-21T20:12:40.594Z,14.40
2018-10-21T20:15:10.591Z,12.77
2018-10-21T20:17:39.879Z,11.83
2018-10-21T20:20:09.691Z,11.80
2018-10-21T20:22:38.591Z,12.13
2018-10-21T20:25:08.445Z,11.47
2018-10-21T20:27:37.263Z,11.90
2018-10-21T20:30:08.102Z,11.80
2018-10-21T20:32:37.114Z,9.90
2018-10-21T20:35:07.696Z,9.00
2018-10-21T20:37:36.638Z,9.53
2018-10-21T20:40:06.642Z,10.37
2018-10-21T20:42:35.519Z,8.73
2018-10-21T20:45:04.615Z,7.63
2018-10-21T20:47:33.527Z,7.70
2018-10-21T20:50:02.501Z,7.87
2018-10-21T20:52:31.452Z,8.37
2018-10-21T20:55:00.396Z,9.47
2018-10-21T20:57:29.298Z,10.43
2018-10-21T20:59:58.243Z,8.40
2018-10-21T21:02:27.150Z,7.60
2018-10-21T21:04:56.072Z,7.53
2018-10-21T21:07:24.958Z,7.10
2018-10-21T21:09:53.853Z,7.50
2018-10-21T21:12:22.738Z,7.13
2018-10-21T21:14:51.550Z,7.90
2018-10-21T21:17:20.499Z,8.20
2018-10-21T21:19:49.374Z,8.50
2018-10-21T21:22:18.400Z,8.10
2018-10-21T21:24:47.255Z,8.53
2018-10-21T21:27:16.225Z,8.57
2018-10-21T21:29:45.127Z,8.13
2018-10-21T21:32:14.074Z,7.80
2018-10-21T21:34:42.925Z,7.17
2018-10-21T21:37:11.811Z,7.67
2018-10-21T21:39:40.738Z,7.70
2018-10-21T21:42:09.613Z,7.30
2018-10-21T21:44:38.482Z,8.43
2018-10-21T21:47:07.401Z,7.30
2018-10-21T21:49:36.278Z,6.20
2018-10-21T21:52:05.212Z,6.93
2018-10-21T21:54:34.148Z,7.70
2018-10-21T21:57:03.059Z,7.37
2018-10-21T21:59:32.028Z,7.63
2018-10-21T22:02:00.951Z,6.77
2018-10-21T22:04:29.891Z,7.17
2018-10-21T22:06:58.786Z,6.33
2018-10-21T22:09:27.679Z,6.97
2018-10-21T22:11:56.605Z,7.10
2018-10-21T22:14:25.460Z,7.60
2018-10-21T22:16:54.362Z,6.30
2018-10-21T22:19:23.239Z,6.23
2018-10-21T22:21:52.126Z,7.07
2018-10-21T22:24:21.014Z,7.60
2018-10-21T22:26:49.963Z,7.33
2018-10-21T22:29:19.825Z,7.37
2018-10-21T22:31:48.755Z,7.93
2018-10-21T22:34:17.731Z,8.43
2018-10-21T22:36:46.622Z,6.80
2018-10-21T22:39:16.001Z,9.10
2018-10-21T22:41:45.076Z,7.50
2018-10-21T22:44:14.642Z,7.90
2018-10-21T22:46:43.527Z,7.97
2018-10-21T22:49:12.415Z,7.87
2018-10-21T22:51:41.339Z,8.13
2018-10-21T22:54:10.383Z,8.47
2018-10-21T22:56:39.140Z,8.73
2018-10-21T22:59:08.078Z,8.00
2018-10-21T23:01:36.945Z,7.70
2018-10-21T23:04:06.046Z,7.17
2018-10-21T23:06:34.955Z,7.20
2018-10-21T23:09:05.170Z,7.30
2018-10-21T23:11:34.078Z,8.80
2018-10-21T23:14:02.985Z,7.93
2018-10-21T23:16:32.719Z,7.90
2018-10-21T23:19:19.103Z,6.90
2018-10-21T23:21:48.031Z,6.63
2018-10-21T23:24:16.982Z,6.90
2018-10-21T23:26:45.794Z,7.50
2018-10-21T23:29:14.759Z,7.40
2018-10-21T23:31:43.694Z,7.03
2018-10-21T23:34:12.701Z,7.77
2018-10-21T23:36:41.558Z,6.70
2018-10-21T23:39:10.498Z,7.30
2018-10-21T23:41:39.361Z,6.80
2018-10-21T23:44:08.269Z,6.87
2018-10-21T23:46:37.143Z,6.93
2018-10-21T23:49:07.071Z,6.77
2018-10-21T23:51:36.020Z,7.53
2018-10-21T23:54:05.093Z,7.50
2018-10-21T23:56:34.062Z,7.17
2018-10-21T23:59:03.006Z,7.20
